Terminal Aerodrome Forecast
Issued by NWS Atlanta, GA

Home | Current Version | Previous Version | Text Only | Print | Product List | Glossary On
Versions: 1 2 3 4 5 6 7 8 9 10 11 12 13 14 15 16 17 18 19 20 21 22 23 24 25 26 27 28 29 30 31 32 33
000
FTUS42 KFFC 261332 AAA
TAFAHN
TAF AMD
KAHN 261332Z 2614/2712 VRB03KT P6SM BKN012
     FM261600 13004KT P6SM OVC025
     FM261800 16007KT P6SM -SHRA OVC035
      TEMPO 2622/2701 3SM TSRA BKN025CB
     FM270100 15006KT P6SM VCSH SCT030 BKN045
     FM270600 12005KT P6SM BKN009=

USA.gov is the U.S. government's official web portal to all federal, state and local government web resources and services.